createdAt,value
2022-11-07T00:02:18.052Z,4.10
2022-11-07T00:05:05.850Z,4.60
2022-11-07T00:07:53.185Z,4.53
2022-11-07T00:10:40.554Z,3.97
2022-11-07T00:13:28.471Z,4.73
2022-11-07T00:16:16.796Z,3.50
2022-11-07T00:19:04.136Z,3.67
2022-11-07T00:21:51.494Z,4.27
2022-11-07T00:24:38.854Z,4.27
2022-11-07T00:27:26.277Z,5.70
2022-11-07T00:30:13.872Z,4.60
2022-11-07T00:33:01.783Z,4.00
2022-11-07T00:35:49.370Z,5.10
2022-11-07T00:38:36.804Z,5.23
2022-11-07T00:41:24.962Z,5.43
2022-11-07T00:44:12.367Z,7.33
2022-11-07T00:46:59.731Z,5.57
2022-11-07T00:49:47.089Z,4.90
2022-11-07T00:52:34.541Z,7.30
2022-11-07T00:55:21.886Z,4.37
2022-11-07T00:58:13.848Z,5.53
2022-11-07T01:01:08.025Z,6.27
2022-11-07T01:04:14.774Z,4.00
2022-11-07T01:07:02.401Z,4.87
2022-11-07T01:09:49.842Z,4.30
2022-11-07T01:12:37.973Z,5.17
2022-11-07T01:15:25.387Z,4.37
2022-11-07T01:18:12.908Z,4.53
2022-11-07T01:21:00.277Z,5.33
2022-11-07T01:23:47.803Z,7.47
2022-11-07T01:26:35.218Z,4.57
2022-11-07T01:29:22.660Z,5.27
2022-11-07T01:32:09.997Z,6.07
2022-11-07T01:34:57.341Z,5.00
2022-11-07T01:37:44.790Z,5.53
2022-11-07T01:40:52.452Z,4.60
2022-11-07T01:43:48.641Z,6.63
2022-11-07T01:46:35.996Z,4.03
2022-11-07T01:49:24.936Z,4.57
2022-11-07T01:52:15.519Z,4.00
2022-11-07T01:55:09.110Z,3.33
2022-11-07T01:57:59.043Z,5.80
2022-11-07T02:00:46.456Z,4.73
2022-11-07T02:03:33.813Z,4.97
2022-11-07T02:06:31.329Z,3.63
2022-11-07T02:09:18.678Z,4.70
2022-11-07T02:12:06.147Z,6.07
2022-11-07T02:14:54.090Z,4.30
2022-11-07T02:17:41.577Z,4.93
2022-11-07T02:20:29.092Z,4.10
2022-11-07T02:23:26.452Z,4.73
2022-11-07T02:26:14.022Z,4.33
2022-11-07T02:29:02.481Z,8.93
2022-11-07T02:32:00.241Z,4.63
2022-11-07T02:34:55.886Z,5.30
2022-11-07T02:37:43.388Z,5.03
2022-11-07T02:40:31.250Z,5.40
2022-11-07T02:43:21.031Z,4.23
2022-11-07T02:46:10.300Z,4.50
2022-11-07T02:48:58.881Z,4.67
2022-11-07T02:51:46.222Z,7.07
2022-11-07T02:54:34.173Z,5.87
2022-11-07T02:57:21.567Z,5.33
2022-11-07T03:00:09.907Z,4.73
2022-11-07T03:02:57.404Z,3.80
2022-11-07T03:05:44.799Z,6.20
2022-11-07T03:08:32.176Z,4.27
2022-11-07T03:11:20.145Z,5.93
2022-11-07T03:14:07.660Z,3.50
2022-11-07T03:16:55.003Z,4.83
2022-11-07T03:19:42.445Z,4.63
2022-11-07T03:22:29.895Z,4.20
2022-11-07T03:25:17.303Z,4.23
2022-11-07T03:28:04.974Z,4.57
2022-11-07T03:30:52.835Z,4.33
2022-11-07T03:33:40.214Z,4.07
2022-11-07T03:36:27.633Z,7.63
2022-11-07T03:39:14.978Z,6.07
2022-11-07T03:42:02.338Z,7.57
2022-11-07T03:44:49.654Z,4.33
2022-11-07T03:47:37.579Z,3.80
2022-11-07T03:50:24.923Z,3.97
2022-11-07T03:53:12.610Z,5.37
2022-11-07T03:56:00.357Z,2.73
2022-11-07T03:58:47.815Z,4.27
2022-11-07T04:01:35.285Z,5.23
2022-11-07T04:04:22.773Z,5.77
2022-11-07T04:07:10.232Z,7.17
2022-11-07T04:09:57.692Z,5.87
2022-11-07T04:13:03.976Z,5.47
2022-11-07T04:16:14.964Z,5.47
2022-11-07T04:19:05.007Z,6.70
2022-11-07T04:21:52.471Z,5.17
2022-11-07T04:24:45.371Z,3.73
2022-11-07T04:27:42.284Z,3.97
2022-11-07T04:30:29.937Z,4.10
2022-11-07T04:33:17.726Z,6.13
2022-11-07T04:36:05.342Z,7.80
2022-11-07T04:38:52.702Z,4.87
2022-11-07T04:41:40.099Z,5.20
2022-11-07T04:44:27.585Z,4.63
2022-11-07T04:47:14.958Z,4.43
2022-11-07T04:50:02.504Z,4.87
2022-11-07T04:52:49.875Z,6.00
2022-11-07T04:55:37.206Z,6.43
2022-11-07T04:58:24.536Z,5.60
2022-11-07T05:01:11.945Z,8.17
2022-11-07T05:04:00.453Z,7.33
2022-11-07T05:06:47.864Z,6.40
2022-11-07T05:09:35.357Z,7.97
2022-11-07T05:12:22.697Z,6.17
2022-11-07T05:15:10.185Z,6.70
2022-11-07T05:17:57.537Z,4.97
2022-11-07T05:20:44.866Z,6.87
2022-11-07T05:23:32.203Z,4.13
2022-11-07T05:26:19.602Z,8.87
2022-11-07T05:29:09.004Z,5.13
2022-11-07T05:31:56.399Z,7.40
2022-11-07T05:34:43.949Z,6.53
2022-11-07T05:37:31.628Z,7.93
2022-11-07T05:40:19.107Z,5.73
2022-11-07T05:43:08.066Z,6.80
2022-11-07T05:45:59.490Z,5.87
2022-11-07T05:48:46.829Z,5.10
2022-11-07T05:51:34.312Z,6.80
2022-11-07T05:54:21.700Z,4.03
2022-11-07T05:57:09.279Z,6.33
2022-11-07T05:59:56.620Z,4.87
2022-11-07T06:02:44.158Z,10.20
2022-11-07T06:05:31.745Z,9.60
2022-11-07T06:08:19.097Z,5.73
2022-11-07T06:11:06.647Z,4.57
2022-11-07T06:13:54.713Z,7.73
2022-11-07T06:16:42.054Z,4.67
2022-11-07T06:19:29.424Z,6.77
2022-11-07T06:22:16.784Z,5.07
2022-11-07T06:25:04.754Z,5.03
2022-11-07T06:27:52.238Z,7.47
2022-11-07T06:30:39.748Z,7.90
2022-11-07T06:33:27.176Z,4.57
2022-11-07T06:36:14.506Z,12.53
2022-11-07T06:39:01.863Z,4.67
2022-11-07T06:41:49.589Z,10.13
2022-11-07T06:44:36.998Z,10.03
2022-11-07T06:47:24.390Z,5.37
2022-11-07T06:50:11.778Z,7.13
2022-11-07T06:53:03.353Z,9.73
2022-11-07T06:55:50.709Z,6.87
2022-11-07T06:58:38.095Z,7.97
2022-11-07T07:01:25.607Z,5.77
2022-11-07T07:04:13.087Z,8.17
2022-11-07T07:07:00.436Z,4.93
2022-11-07T07:09:47.762Z,10.23
2022-11-07T07:12:35.442Z,7.27
2022-11-07T07:15:23.147Z,6.30
2022-11-07T07:18:10.478Z,11.20
2022-11-07T07:21:08.011Z,6.33
2022-11-07T07:23:55.429Z,8.43
2022-11-07T07:26:42.799Z,8.30
2022-11-07T07:29:30.182Z,7.57
2022-11-07T07:32:17.653Z,5.87
2022-11-07T07:35:05.572Z,5.03
2022-11-07T07:37:53.198Z,4.80
2022-11-07T07:40:40.520Z,5.53
2022-11-07T07:43:28.384Z,7.67
2022-11-07T07:46:22.557Z,7.07
2022-11-07T07:49:09.928Z,5.33
2022-11-07T07:51:57.279Z,6.50
2022-11-07T07:54:44.644Z,5.53
2022-11-07T07:57:31.971Z,7.07
2022-11-07T08:00:19.602Z,6.60
2022-11-07T08:03:08.493Z,4.93
2022-11-07T08:05:59.849Z,6.73
2022-11-07T08:08:47.346Z,5.30
2022-11-07T08:11:35.282Z,4.07
2022-11-07T08:14:22.766Z,7.10
2022-11-07T08:17:10.515Z,4.73
2022-11-07T08:19:58.060Z,6.33
2022-11-07T08:22:45.795Z,11.03
2022-11-07T08:25:33.990Z,6.53
2022-11-07T08:28:22.504Z,5.47
2022-11-07T08:31:12.614Z,4.80
2022-11-07T08:34:02.461Z,8.03
2022-11-07T08:36:50.147Z,5.53
2022-11-07T08:39:37.622Z,7.60
2022-11-07T08:42:25.500Z,7.80
2022-11-07T08:45:13.030Z,6.73
2022-11-07T08:48:00.914Z,6.83
2022-11-07T08:50:52.891Z,12.87
2022-11-07T08:53:40.302Z,7.37
2022-11-07T08:56:28.776Z,8.77
2022-11-07T08:59:16.572Z,9.10
2022-11-07T09:02:39.353Z,7.40
2022-11-07T09:05:11.560Z,7.87
2022-11-07T09:07:59.057Z,8.27
2022-11-07T09:10:46.464Z,6.10
2022-11-07T09:13:34.967Z,6.93
2022-11-07T09:16:23.184Z,9.90
2022-11-07T09:19:10.772Z,7.67
2022-11-07T09:21:58.188Z,7.20
2022-11-07T09:24:45.617Z,6.80
2022-11-07T09:27:33.440Z,6.13
2022-11-07T09:30:21.392Z,6.80
2022-11-07T09:33:09.203Z,7.73
2022-11-07T09:36:00.008Z,5.90
2022-11-07T09:38:47.698Z,3.73
2022-11-07T09:41:53.627Z,10.00
2022-11-07T09:44:59.206Z,8.30
2022-11-07T09:48:00.637Z,5.00
2022-11-07T09:50:49.505Z,8.23
2022-11-07T09:53:45.894Z,4.90
2022-11-07T09:56:35.526Z,5.50
2022-11-07T09:59:46.317Z,5.40
2022-11-07T10:02:37.931Z,4.57
2022-11-07T10:05:26.308Z,8.37
2022-11-07T10:08:18.204Z,5.17
2022-11-07T10:11:12.982Z,6.80
2022-11-07T10:14:07.743Z,4.40
2022-11-07T10:17:15.757Z,8.87
2022-11-07T10:20:09.353Z,6.20
2022-11-07T10:22:59.761Z,4.33
2022-11-07T10:25:53.000Z,6.03
2022-11-07T10:28:46.502Z,5.20
2022-11-07T10:31:36.688Z,7.67
2022-11-07T10:34:31.189Z,6.17
2022-11-07T10:37:18.595Z,8.83
2022-11-07T10:40:19.068Z,8.43
2022-11-07T10:43:09.971Z,8.17
2022-11-07T10:45:57.521Z,7.80
2022-11-07T10:48:52.163Z,5.87
2022-11-07T10:51:41.086Z,10.47
2022-11-07T10:54:29.736Z,5.70
2022-11-07T10:57:18.644Z,7.47
2022-11-07T11:00:18.214Z,11.50
2022-11-07T11:03:16.242Z,10.17
2022-11-07T11:06:20.254Z,8.07
2022-11-07T11:09:16.032Z,6.33
2022-11-07T11:12:07.985Z,7.63
2022-11-07T11:15:11.548Z,8.03
2022-11-07T11:18:00.555Z,10.30
2022-11-07T11:20:58.548Z,8.57
2022-11-07T11:23:46.509Z,6.53
2022-11-07T11:26:36.932Z,7.17
2022-11-07T11:29:39.375Z,6.50
2022-11-07T11:32:45.823Z,8.87
2022-11-07T11:35:42.589Z,6.77
2022-11-07T11:38:30.968Z,6.23
2022-11-07T11:41:20.935Z,8.90
2022-11-07T11:44:17.189Z,6.90
2022-11-07T11:47:07.775Z,7.03
2022-11-07T11:49:59.232Z,9.17
2022-11-07T11:52:46.658Z,6.97
2022-11-07T11:55:38.091Z,8.53
2022-11-07T11:58:31.958Z,5.97
2022-11-07T12:04:32.387Z,7.87
2022-11-07T12:07:37.909Z,6.67
2022-11-07T12:10:35.666Z,7.67
2022-11-07T12:13:26.999Z,7.10
2022-11-07T12:16:20.708Z,8.07
2022-11-07T12:19:21.800Z,8.80
2022-11-07T12:22:09.689Z,6.83
2022-11-07T12:25:00.889Z,5.97
2022-11-07T12:28:07.928Z,8.63
2022-11-07T12:31:14.480Z,8.00
2022-11-07T12:34:15.754Z,9.87
2022-11-07T12:37:17.898Z,9.00
2022-11-07T12:40:19.772Z,8.33
2022-11-07T12:43:13.266Z,9.07
2022-11-07T12:46:19.987Z,5.77
2022-11-07T12:49:13.535Z,9.63
2022-11-07T12:52:16.424Z,7.03
2022-11-07T12:55:24.417Z,7.77
2022-11-07T12:58:23.143Z,12.50
2022-11-07T13:01:13.876Z,9.70
2022-11-07T13:04:02.371Z,8.13
2022-11-07T13:06:49.774Z,9.33
2022-11-07T13:09:37.097Z,7.90
2022-11-07T13:12:43.458Z,7.23
2022-11-07T13:15:47.454Z,8.67
2022-11-07T13:18:38.707Z,8.67
2022-11-07T13:21:26.095Z,9.73
2022-11-07T13:24:21.003Z,10.80
2022-11-07T13:27:25.147Z,9.27
2022-11-07T13:30:15.258Z,6.50
2022-11-07T13:33:03.364Z,7.60
2022-11-07T13:35:54.712Z,9.37
2022-11-07T13:38:48.416Z,6.17
2022-11-07T13:41:36.152Z,7.33
2022-11-07T13:44:34.734Z,7.27
2022-11-07T13:47:26.294Z,8.40
2022-11-07T13:50:22.182Z,10.83
2022-11-07T13:53:22.560Z,8.17
2022-11-07T13:56:25.058Z,7.27
2022-11-07T13:59:33.913Z,7.67
2022-11-07T14:02:25.225Z,12.57
2022-11-07T14:05:17.243Z,9.40
2022-11-07T14:08:06.915Z,9.90
2022-11-07T14:10:54.515Z,9.97
2022-11-07T14:13:42.549Z,8.43
2022-11-07T14:16:33.627Z,6.90
2022-11-07T14:19:26.691Z,6.37
2022-11-07T14:22:24.081Z,9.30
2022-11-07T14:25:26.565Z,12.10
2022-11-07T14:28:16.311Z,5.33
2022-11-07T14:31:08.488Z,9.90
2022-11-07T14:34:00.386Z,9.00
2022-11-07T14:36:52.397Z,7.07
2022-11-07T14:39:40.044Z,7.93
2022-11-07T14:42:27.512Z,8.70
2022-11-07T14:45:20.821Z,10.87
2022-11-07T14:48:21.997Z,11.03
2022-11-07T14:51:12.699Z,8.50
2022-11-07T14:54:14.376Z,10.60
2022-11-07T14:57:02.037Z,9.10
2022-11-07T14:59:49.539Z,9.17
2022-11-07T15:02:36.963Z,9.00
2022-11-07T15:05:26.827Z,7.27
2022-11-07T15:08:49.508Z,9.07
2022-11-07T15:11:37.961Z,6.93
2022-11-07T15:14:30.115Z,7.47
2022-11-07T15:17:25.611Z,7.63
2022-11-07T15:20:31.155Z,8.37
2022-11-07T15:23:18.503Z,8.03
2022-11-07T15:26:08.357Z,9.17
2022-11-07T15:28:55.810Z,9.47
2022-11-07T15:31:48.192Z,8.83
2022-11-07T15:34:58.554Z,8.63
2022-11-07T15:37:51.985Z,11.90
2022-11-07T15:40:39.333Z,10.17
2022-11-07T15:43:26.714Z,13.27
2022-11-07T15:46:20.889Z,10.27
2022-11-07T15:49:11.369Z,11.20
2022-11-07T15:51:58.721Z,9.67
2022-11-07T15:54:46.110Z,9.17
2022-11-07T15:57:34.079Z,8.57
2022-11-07T16:00:22.517Z,11.63
2022-11-07T16:03:19.834Z,10.10
2022-11-07T16:06:28.058Z,12.30
2022-11-07T16:09:16.338Z,6.80
2022-11-07T16:12:03.821Z,10.87
2022-11-07T16:14:51.161Z,7.30
2022-11-07T16:17:38.531Z,10.40
2022-11-07T16:20:26.037Z,7.83
2022-11-07T16:23:13.578Z,12.37
2022-11-07T16:26:00.996Z,24.90
2022-11-07T16:28:48.380Z,25.40
2022-11-07T16:31:35.713Z,36.57
2022-11-07T16:34:23.088Z,16.70
2022-11-07T16:37:12.365Z,8.40
2022-11-07T16:39:59.742Z,9.70
2022-11-07T16:42:47.564Z,9.90
2022-11-07T16:45:35.739Z,11.10
2022-11-07T16:48:23.132Z,10.83
2022-11-07T16:51:14.837Z,8.90
2022-11-07T16:54:02.201Z,9.93
2022-11-07T16:56:53.127Z,9.37
2022-11-07T16:59:40.496Z,10.83
2022-11-07T17:02:28.098Z,15.67
2022-11-07T17:05:15.661Z,17.63
2022-11-07T17:08:03.592Z,15.10
2022-11-07T17:10:50.987Z,18.60
2022-11-07T17:13:38.345Z,11.40
2022-11-07T17:16:29.366Z,10.17
2022-11-07T17:19:16.768Z,8.00
2022-11-07T17:22:04.502Z,12.43
2022-11-07T17:24:51.855Z,12.30
2022-11-07T17:27:40.902Z,13.90
2022-11-07T17:30:29.310Z,13.80
2022-11-07T17:33:16.699Z,14.00
2022-11-07T17:36:04.622Z,21.17
2022-11-07T17:38:52.877Z,14.53
2022-11-07T17:41:41.105Z,11.70
2022-11-07T17:44:28.517Z,13.37
2022-11-07T17:47:26.443Z,10.27
2022-11-07T17:50:18.172Z,9.03
2022-11-07T17:53:05.515Z,10.53
2022-11-07T17:55:52.853Z,11.93
2022-11-07T17:58:40.195Z,21.40
2022-11-07T18:01:28.789Z,16.30
2022-11-07T18:04:16.241Z,14.43
2022-11-07T18:07:03.584Z,17.80
2022-11-07T18:09:52.930Z,18.23
2022-11-07T18:12:40.335Z,13.23
2022-11-07T18:15:27.671Z,10.77
2022-11-07T18:18:15.304Z,15.10
2022-11-07T18:21:03.193Z,12.17
2022-11-07T18:23:50.693Z,13.50
2022-11-07T18:26:38.497Z,9.33
2022-11-07T18:29:25.928Z,12.87
2022-11-07T18:32:13.348Z,11.23
2022-11-07T18:35:00.680Z,11.80
2022-11-07T18:37:48.177Z,10.10
2022-11-07T18:40:35.557Z,9.17
2022-11-07T18:43:22.975Z,6.37
2022-11-07T18:46:14.503Z,14.50
2022-11-07T18:49:01.964Z,6.83
2022-11-07T18:51:49.440Z,6.87
2022-11-07T18:54:36.949Z,11.33
2022-11-07T18:57:24.616Z,10.80
2022-11-07T19:00:13.876Z,8.73
2022-11-07T19:03:04.278Z,10.00
2022-11-07T19:05:52.405Z,11.43
2022-11-07T19:08:40.605Z,9.73
2022-11-07T19:11:31.814Z,11.87
2022-11-07T19:14:19.827Z,11.10
2022-11-07T19:17:07.203Z,8.37
2022-11-07T19:19:54.558Z,11.43
2022-11-07T19:22:42.025Z,10.80
2022-11-07T19:25:29.406Z,14.00
2022-11-07T19:28:17.109Z,14.70
2022-11-07T19:31:05.190Z,13.20
2022-11-07T19:33:52.561Z,12.07
2022-11-07T19:36:39.971Z,10.73
2022-11-07T19:39:27.774Z,14.07
2022-11-07T19:42:15.139Z,8.43
2022-11-07T19:45:02.651Z,12.00
2022-11-07T19:47:50.188Z,9.70
2022-11-07T19:50:38.952Z,11.80
2022-11-07T19:53:26.423Z,9.17
2022-11-07T19:56:14.894Z,11.93
2022-11-07T19:59:02.241Z,10.40
2022-11-07T20:02:10.746Z,11.57
2022-11-07T20:04:56.959Z,13.93
2022-11-07T20:07:44.347Z,11.37
2022-11-07T20:10:31.726Z,11.17
2022-11-07T20:13:19.511Z,10.83
2022-11-07T20:16:09.103Z,11.60
2022-11-07T20:18:56.465Z,10.43
2022-11-07T20:21:43.812Z,13.93
2022-11-07T20:24:31.154Z,12.30
2022-11-07T20:27:18.530Z,13.13
2022-11-07T20:30:06.209Z,12.13
2022-11-07T20:32:53.559Z,10.47
2022-11-07T20:35:40.967Z,11.17
2022-11-07T20:38:29.127Z,8.27
2022-11-07T20:41:16.667Z,11.50
2022-11-07T20:44:05.653Z,10.30
2022-11-07T20:46:53.060Z,11.27
2022-11-07T20:49:41.552Z,11.00
2022-11-07T20:52:28.919Z,13.67
2022-11-07T20:55:16.980Z,11.20
2022-11-07T20:58:05.124Z,9.10
2022-11-07T21:00:53.015Z,13.83
2022-11-07T21:03:40.464Z,8.30
2022-11-07T21:06:27.851Z,10.03
2022-11-07T21:09:15.313Z,9.17
2022-11-07T21:12:02.697Z,11.33
2022-11-07T21:14:50.125Z,8.63
2022-11-07T21:17:37.578Z,12.03
2022-11-07T21:20:25.221Z,12.10
2022-11-07T21:23:12.900Z,9.40
2022-11-07T21:26:00.351Z,9.63
2022-11-07T21:28:47.882Z,12.23
2022-11-07T21:31:36.040Z,12.37
2022-11-07T21:34:23.457Z,7.93
2022-11-07T21:37:10.795Z,11.30
2022-11-07T21:39:58.149Z,9.57
2022-11-07T21:42:45.483Z,9.30
2022-11-07T21:45:32.859Z,9.63
2022-11-07T21:48:20.190Z,8.53
2022-11-07T21:51:08.703Z,13.53
2022-11-07T21:53:56.666Z,10.70
2022-11-07T21:56:44.031Z,9.70
2022-11-07T21:59:31.357Z,8.17
2022-11-07T22:02:18.807Z,14.63
2022-11-07T22:05:06.764Z,7.20
2022-11-07T22:07:54.091Z,10.83
2022-11-07T22:10:41.439Z,10.67
2022-11-07T22:13:28.840Z,9.60
2022-11-07T22:16:18.189Z,11.03
2022-11-07T22:19:11.237Z,11.23
2022-11-07T22:21:59.825Z,8.90
2022-11-07T22:24:47.561Z,8.70
2022-11-07T22:27:37.116Z,8.53
2022-11-07T22:30:24.608Z,6.50
2022-11-07T22:33:12.476Z,11.27
2022-11-07T22:36:00.701Z,10.30
2022-11-07T22:38:48.116Z,8.90
2022-11-07T22:41:35.497Z,10.70
2022-11-07T22:44:22.878Z,9.57
2022-11-07T22:47:10.310Z,6.50
2022-11-07T22:49:57.651Z,8.40
2022-11-07T22:52:45.010Z,7.67
2022-11-07T22:55:35.347Z,9.77
2022-11-07T22:58:22.746Z,6.73
2022-11-07T23:01:23.528Z,7.97
2022-11-07T23:04:14.273Z,6.77
2022-11-07T23:07:01.947Z,7.50
2022-11-07T23:09:49.420Z,7.30
2022-11-07T23:12:36.777Z,6.60
2022-11-07T23:15:24.145Z,7.33
2022-11-07T23:18:11.504Z,8.70
2022-11-07T23:21:11.241Z,10.40
2022-11-07T23:23:59.317Z,5.23
2022-11-07T23:26:46.707Z,7.80
2022-11-07T23:29:34.094Z,6.23
2022-11-07T23:32:21.440Z,10.33
2022-11-07T23:35:08.966Z,8.33
2022-11-07T23:37:56.295Z,4.43
2022-11-07T23:40:43.861Z,6.07
2022-11-07T23:43:31.640Z,6.13
2022-11-07T23:46:37.859Z,6.53
2022-11-07T23:49:43.807Z,6.13
2022-11-07T23:52:31.133Z,7.23
2022-11-07T23:55:37.579Z,6.20
2022-11-07T23:58:43.621Z,7.17
